createdAt,value
2019-03-22T00:00:33.479Z,0.00
2019-03-22T00:01:33.395Z,0.00
2019-03-22T00:02:33.427Z,0.00
2019-03-22T00:03:33.402Z,0.00
2019-03-22T00:04:33.418Z,0.00
2019-03-22T00:05:33.377Z,0.00
2019-03-22T00:06:33.389Z,0.00
2019-03-22T00:07:33.355Z,0.00
2019-03-22T00:08:33.339Z,0.00
2019-03-22T00:09:33.332Z,0.00
2019-03-22T00:10:33.313Z,0.00
2019-03-22T00:11:33.354Z,0.00
2019-03-22T00:12:33.390Z,0.00
2019-03-22T00:13:33.285Z,0.00
2019-03-22T00:14:33.255Z,0.00
2019-03-22T00:15:33.290Z,0.00
2019-03-22T00:16:33.244Z,0.00
2019-03-22T00:17:33.247Z,0.00
2019-03-22T00:18:33.242Z,0.00
2019-03-22T00:19:33.220Z,0.00
2019-03-22T00:20:33.228Z,0.00
2019-03-22T00:21:33.182Z,0.00
2019-03-22T00:22:33.158Z,0.00
2019-03-22T00:23:33.270Z,0.00
2019-03-22T00:24:33.215Z,0.00
2019-03-22T00:25:33.183Z,0.00
2019-03-22T00:26:33.141Z,0.00
2019-03-22T00:27:33.136Z,0.00
2019-03-22T00:28:33.109Z,0.00
2019-03-22T00:29:33.156Z,0.00
2019-03-22T00:30:33.117Z,0.00
2019-03-22T00:31:33.088Z,0.00
2019-03-22T00:32:33.070Z,0.00
2019-03-22T00:33:33.044Z,0.00
2019-03-22T00:34:33.079Z,0.00
2019-03-22T00:35:33.032Z,0.00
2019-03-22T00:36:33.054Z,0.00
2019-03-22T00:37:33.048Z,0.00
2019-03-22T00:38:33.016Z,0.00
2019-03-22T00:39:33.017Z,0.00
2019-03-22T00:40:32.982Z,0.00
2019-03-22T00:41:32.968Z,0.00
2019-03-22T00:42:32.983Z,0.00
2019-03-22T00:43:32.970Z,0.00
2019-03-22T00:44:33.022Z,0.00
2019-03-22T00:45:32.934Z,0.00
2019-03-22T00:46:32.924Z,0.00
2019-03-22T00:47:32.920Z,0.00
2019-03-22T00:48:32.937Z,0.00
2019-03-22T00:49:32.897Z,0.00
2019-03-22T00:50:41.806Z,0.00
2019-03-22T00:51:32.843Z,0.00
2019-03-22T00:52:32.858Z,0.00
2019-03-22T00:53:32.841Z,0.00
2019-03-22T00:54:32.821Z,0.00
2019-03-22T00:55:32.817Z,0.00
2019-03-22T00:56:32.846Z,0.00
2019-03-22T00:57:32.790Z,0.00
2019-03-22T00:58:32.770Z,0.00
2019-03-22T00:59:32.767Z,0.00
2019-03-22T01:00:32.748Z,0.00
2019-03-22T01:01:32.762Z,0.00
2019-03-22T01:02:32.767Z,0.00
2019-03-22T01:03:32.742Z,0.00
2019-03-22T01:04:32.756Z,0.00
2019-03-22T01:05:32.708Z,0.00
2019-03-22T01:06:32.727Z,0.00
2019-03-22T01:07:32.692Z,0.00
2019-03-22T01:08:32.680Z,0.00
2019-03-22T01:09:32.654Z,0.00
2019-03-22T01:10:32.663Z,0.00
2019-03-22T01:11:32.697Z,0.00
2019-03-22T01:12:32.675Z,0.00
2019-03-22T01:13:32.612Z,0.00
2019-03-22T01:14:32.610Z,0.00
2019-03-22T01:15:32.626Z,0.00
2019-03-22T01:16:32.628Z,0.00
2019-03-22T01:17:32.579Z,0.00
2019-03-22T01:18:41.838Z,0.00
2019-03-22T01:19:32.563Z,0.00
2019-03-22T01:20:32.562Z,0.00
2019-03-22T01:21:32.543Z,0.00
2019-03-22T01:22:32.865Z,0.00
2019-03-22T01:23:32.509Z,0.00
2019-03-22T01:24:32.510Z,0.00
2019-03-22T01:25:32.510Z,0.00
2019-03-22T01:26:32.473Z,0.00
2019-03-22T01:27:40.290Z,0.00
2019-03-22T01:28:33.459Z,0.00
2019-03-22T01:29:32.459Z,0.00
2019-03-22T01:30:32.453Z,0.00
2019-03-22T01:31:32.431Z,0.00
2019-03-22T01:32:32.414Z,0.00
2019-03-22T01:33:32.433Z,0.00
2019-03-22T01:34:32.393Z,0.00
2019-03-22T01:35:32.406Z,0.00
2019-03-22T01:36:32.415Z,0.00
2019-03-22T01:37:32.375Z,0.00
2019-03-22T01:38:32.375Z,0.00
2019-03-22T01:39:32.337Z,0.00
2019-03-22T01:40:32.324Z,0.00
2019-03-22T01:41:32.339Z,0.00
2019-03-22T01:42:32.328Z,0.00
2019-03-22T01:43:32.312Z,0.00
2019-03-22T01:44:32.332Z,0.00
2019-03-22T01:45:32.292Z,0.00
2019-03-22T01:46:32.263Z,0.00
2019-03-22T01:47:32.282Z,0.00
2019-03-22T01:48:32.267Z,0.00
2019-03-22T01:49:32.281Z,0.00
2019-03-22T01:50:32.238Z,0.00
2019-03-22T01:51:32.221Z,0.00
2019-03-22T01:52:32.218Z,0.00
2019-03-22T01:53:32.193Z,0.00
2019-03-22T01:54:32.195Z,0.00
2019-03-22T01:55:32.195Z,0.00
2019-03-22T01:56:32.167Z,0.00
2019-03-22T01:57:32.160Z,0.00
2019-03-22T01:58:32.160Z,0.00
2019-03-22T01:59:32.130Z,0.00
2019-03-22T02:00:32.130Z,0.00
2019-03-22T02:01:32.120Z,0.00
2019-03-22T02:02:32.092Z,0.00
2019-03-22T02:03:32.094Z,0.00
2019-03-22T02:04:32.091Z,0.00
2019-03-22T02:05:32.156Z,0.00
2019-03-22T02:06:32.044Z,0.00
2019-03-22T02:07:32.043Z,0.00
2019-03-22T02:08:32.063Z,0.00
2019-03-22T02:09:32.012Z,0.00
2019-03-22T02:10:32.002Z,0.00
2019-03-22T02:11:32.042Z,0.00
2019-03-22T02:12:32.012Z,0.00
2019-03-22T02:13:31.991Z,0.00
2019-03-22T02:14:31.956Z,0.00
2019-03-22T02:15:31.948Z,0.00
2019-03-22T02:16:31.967Z,0.00
2019-03-22T02:17:31.933Z,0.00
2019-03-22T02:18:31.920Z,0.00
2019-03-22T02:19:31.910Z,0.00
2019-03-22T02:20:31.908Z,0.00
2019-03-22T02:21:31.905Z,0.00
2019-03-22T02:22:31.907Z,0.00
2019-03-22T02:23:31.876Z,0.00
2019-03-22T02:24:31.865Z,0.00
2019-03-22T02:25:31.864Z,0.00
2019-03-22T02:26:31.844Z,0.00
2019-03-22T02:27:31.839Z,0.00
2019-03-22T02:28:31.827Z,0.00
2019-03-22T02:29:31.823Z,0.00
2019-03-22T02:30:31.815Z,0.00
2019-03-22T02:31:31.782Z,0.00
2019-03-22T02:32:31.782Z,0.00
2019-03-22T02:33:31.778Z,0.00
2019-03-22T02:34:31.773Z,0.00
2019-03-22T02:35:31.750Z,0.00
2019-03-22T02:36:31.741Z,0.00
2019-03-22T02:37:31.726Z,0.00
2019-03-22T02:38:31.765Z,0.00
2019-03-22T02:39:31.819Z,0.00
2019-03-22T02:40:31.697Z,0.00
2019-03-22T02:41:31.687Z,0.00
2019-03-22T02:42:31.684Z,0.00
2019-03-22T02:43:31.671Z,0.00
2019-03-22T02:44:31.664Z,0.00
2019-03-22T02:45:31.633Z,0.00
2019-03-22T02:46:31.645Z,0.00
2019-03-22T02:47:31.665Z,0.00
2019-03-22T02:48:31.638Z,0.00
2019-03-22T02:49:31.609Z,0.00
2019-03-22T02:50:31.586Z,0.00
2019-03-22T02:51:31.581Z,0.00
2019-03-22T02:52:31.561Z,0.00
2019-03-22T02:53:31.587Z,0.00
2019-03-22T02:54:31.565Z,0.00
2019-03-22T02:55:31.543Z,0.00
2019-03-22T02:56:31.532Z,0.00
2019-03-22T02:57:31.540Z,0.00
2019-03-22T02:58:31.502Z,0.00
2019-03-22T02:59:31.519Z,0.00
2019-03-22T03:00:31.473Z,0.00
2019-03-22T03:01:31.484Z,0.00
2019-03-22T03:02:31.471Z,0.00
2019-03-22T03:03:31.443Z,0.00
2019-03-22T03:04:31.472Z,0.00
2019-03-22T03:05:31.425Z,0.00
2019-03-22T03:06:31.422Z,0.00
2019-03-22T03:07:31.410Z,0.00
2019-03-22T03:08:31.386Z,0.00
2019-03-22T03:09:31.392Z,0.00
2019-03-22T03:10:31.402Z,0.00
2019-03-22T03:11:31.363Z,0.00
2019-03-22T03:12:31.342Z,0.00
2019-03-22T03:13:31.346Z,0.00
2019-03-22T03:14:31.348Z,0.00
2019-03-22T03:15:31.337Z,0.00
2019-03-22T03:16:31.352Z,0.00
2019-03-22T03:17:31.321Z,0.00
2019-03-22T03:18:31.289Z,0.00
2019-03-22T03:19:31.274Z,0.00
2019-03-22T03:20:31.275Z,0.00
2019-03-22T03:21:31.253Z,0.00
2019-03-22T03:22:31.253Z,0.00
2019-03-22T03:23:31.232Z,0.00
2019-03-22T03:24:31.225Z,0.00
2019-03-22T03:25:31.229Z,0.00
2019-03-22T03:26:31.219Z,0.00
2019-03-22T03:27:31.196Z,0.00
2019-03-22T03:28:37.108Z,0.00
2019-03-22T03:29:32.159Z,0.00
2019-03-22T03:30:31.222Z,0.00
2019-03-22T03:31:31.196Z,0.00
2019-03-22T03:32:31.139Z,0.00
2019-03-22T03:33:31.135Z,0.00
2019-03-22T03:34:31.119Z,0.00
2019-03-22T03:35:31.104Z,0.00
2019-03-22T03:36:34.625Z,0.00
2019-03-22T03:37:31.075Z,0.00
2019-03-22T03:38:31.058Z,0.00
2019-03-22T03:39:31.064Z,0.00
2019-03-22T03:40:31.070Z,0.00
2019-03-22T03:41:31.066Z,0.00
2019-03-22T03:42:31.024Z,0.00
2019-03-22T03:43:31.042Z,0.00
2019-03-22T03:44:31.000Z,0.00
2019-03-22T03:45:30.996Z,0.00
2019-03-22T03:46:30.975Z,0.00
2019-03-22T03:47:31.001Z,0.00
2019-03-22T03:48:30.992Z,0.00
2019-03-22T03:49:30.994Z,0.00
2019-03-22T03:50:30.942Z,0.00
2019-03-22T03:51:30.929Z,0.00
2019-03-22T03:52:30.914Z,0.00
2019-03-22T03:53:30.944Z,0.00
2019-03-22T03:54:30.904Z,0.00
2019-03-22T03:55:30.934Z,0.00
2019-03-22T03:56:30.873Z,0.00
2019-03-22T03:57:30.861Z,0.00
2019-03-22T03:58:30.887Z,0.00
2019-03-22T03:59:30.851Z,0.00
2019-03-22T04:00:30.822Z,0.00
2019-03-22T04:01:30.897Z,0.00
2019-03-22T04:02:30.855Z,0.00
2019-03-22T04:03:30.829Z,0.00
2019-03-22T04:04:30.808Z,0.00
2019-03-22T04:05:30.796Z,0.00
2019-03-22T04:06:30.798Z,0.00
2019-03-22T04:07:30.759Z,0.00
2019-03-22T04:08:30.786Z,0.00
2019-03-22T04:09:30.754Z,0.00
2019-03-22T04:10:30.739Z,0.00
2019-03-22T04:11:30.738Z,0.00
2019-03-22T04:12:30.714Z,0.00
2019-03-22T04:13:30.714Z,0.00
2019-03-22T04:14:30.732Z,0.00
2019-03-22T04:15:30.685Z,0.00
2019-03-22T04:16:30.691Z,0.00
2019-03-22T04:17:30.665Z,0.00
2019-03-22T04:18:30.652Z,0.00
2019-03-22T04:19:30.639Z,0.00
2019-03-22T04:20:30.633Z,0.00
2019-03-22T04:21:30.619Z,0.00
2019-03-22T04:22:30.609Z,0.00
2019-03-22T04:23:30.587Z,0.00
2019-03-22T04:24:30.682Z,0.00
2019-03-22T04:25:30.702Z,0.00
2019-03-22T04:26:30.575Z,0.00
2019-03-22T04:27:30.571Z,0.00
2019-03-22T04:28:30.549Z,0.00
2019-03-22T04:29:30.545Z,0.00
2019-03-22T04:30:30.512Z,0.00
2019-03-22T04:31:30.538Z,0.00
2019-03-22T04:32:30.521Z,0.00
2019-03-22T04:33:30.502Z,0.00
2019-03-22T04:34:30.485Z,0.00
2019-03-22T04:35:30.483Z,0.00
2019-03-22T04:36:30.500Z,0.00
2019-03-22T04:37:30.437Z,0.00
2019-03-22T04:38:30.448Z,0.00
2019-03-22T04:39:30.442Z,0.00
2019-03-22T04:40:30.441Z,0.00
2019-03-22T04:41:30.427Z,4.00
2019-03-22T04:42:30.386Z,4.00
2019-03-22T04:43:30.385Z,0.00
2019-03-22T04:44:30.367Z,0.00
2019-03-22T04:45:30.362Z,4.00
2019-03-22T04:46:30.360Z,4.00
2019-03-22T04:47:30.367Z,4.00
2019-03-22T04:48:30.321Z,4.00
2019-03-22T04:49:30.363Z,4.00
2019-03-22T04:50:30.318Z,4.00
2019-03-22T04:51:30.316Z,8.00
2019-03-22T04:52:30.328Z,12.00
2019-03-22T04:53:30.273Z,12.00
2019-03-22T04:54:30.278Z,16.00
2019-03-22T04:55:30.264Z,16.00
2019-03-22T04:56:30.265Z,16.00
2019-03-22T04:57:30.246Z,20.00
2019-03-22T04:58:30.232Z,20.00
2019-03-22T04:59:30.213Z,24.00
2019-03-22T05:00:30.207Z,28.00
2019-03-22T05:01:30.195Z,24.00
2019-03-22T05:02:30.224Z,32.00
2019-03-22T05:03:30.184Z,32.00
2019-03-22T05:04:30.161Z,32.00
2019-03-22T05:05:30.153Z,40.00
2019-03-22T05:06:30.142Z,40.00
2019-03-22T05:07:30.164Z,44.00
2019-03-22T05:08:30.122Z,44.00
2019-03-22T05:09:30.107Z,48.00
2019-03-22T05:10:30.105Z,52.00
2019-03-22T05:11:30.093Z,56.00
2019-03-22T05:12:30.098Z,60.00
2019-03-22T05:13:30.080Z,64.00
2019-03-22T05:14:30.047Z,72.00
2019-03-22T05:15:30.045Z,80.00
2019-03-22T05:16:30.032Z,84.00
2019-03-22T05:17:30.025Z,92.00
2019-03-22T05:18:30.066Z,100.00
2019-03-22T05:19:30.083Z,104.00
2019-03-22T05:20:29.990Z,108.00
2019-03-22T05:21:29.993Z,112.00
2019-03-22T05:22:29.981Z,124.00
2019-03-22T05:23:29.987Z,132.00
2019-03-22T05:24:30.101Z,144.00
2019-03-22T05:25:30.061Z,156.00
2019-03-22T05:26:29.977Z,172.00
2019-03-22T05:27:30.829Z,176.00
2019-03-22T05:28:30.854Z,184.00
2019-03-22T05:29:30.992Z,184.00
2019-03-22T05:30:29.925Z,188.00
2019-03-22T05:31:29.978Z,204.00
2019-03-22T05:32:30.020Z,216.00
2019-03-22T05:33:30.083Z,232.00
2019-03-22T05:34:29.966Z,244.00
2019-03-22T05:35:29.935Z,256.00
2019-03-22T05:36:29.949Z,260.00
2019-03-22T05:37:29.825Z,272.00
2019-03-22T05:38:29.819Z,280.00
2019-03-22T05:39:29.794Z,292.00
2019-03-22T05:40:29.861Z,300.00
2019-03-22T05:41:29.781Z,308.00
2019-03-22T05:42:29.770Z,320.00
2019-03-22T05:43:29.751Z,324.00
2019-03-22T05:44:29.753Z,336.00
2019-03-22T05:45:29.811Z,348.00
2019-03-22T05:46:30.060Z,360.00
2019-03-22T05:47:29.805Z,368.00
2019-03-22T05:48:29.876Z,376.00
2019-03-22T05:49:29.753Z,376.00
2019-03-22T05:50:29.856Z,388.00
2019-03-22T05:51:29.848Z,392.00
2019-03-22T05:52:29.758Z,400.00
2019-03-22T05:53:29.677Z,404.00
2019-03-22T05:54:29.641Z,412.00
2019-03-22T05:55:29.692Z,460.00
2019-03-22T05:56:29.687Z,528.00
2019-03-22T05:57:29.700Z,548.00
2019-03-22T05:58:29.740Z,556.00
2019-03-22T05:59:37.681Z,580.00
2019-03-22T06:00:30.566Z,588.00
2019-03-22T06:01:29.640Z,608.00
2019-03-22T06:02:29.543Z,628.00
2019-03-22T06:03:29.541Z,632.00
2019-03-22T06:04:29.516Z,640.00
2019-03-22T06:05:29.510Z,672.00
2019-03-22T06:06:29.565Z,692.00
2019-03-22T06:07:29.500Z,704.00
2019-03-22T06:08:29.480Z,712.00
2019-03-22T06:09:29.476Z,712.00
2019-03-22T06:10:29.465Z,700.00
2019-03-22T06:11:29.451Z,684.00
2019-03-22T06:12:29.460Z,712.00
2019-03-22T06:13:29.439Z,728.00
2019-03-22T06:14:29.419Z,740.00
2019-03-22T06:15:29.415Z,780.00
2019-03-22T06:16:29.395Z,832.00
2019-03-22T06:17:29.411Z,820.00
2019-03-22T06:18:29.380Z,828.00
2019-03-22T06:19:29.380Z,828.00
2019-03-22T06:20:29.380Z,836.00
2019-03-22T06:21:29.383Z,856.00
2019-03-22T06:22:29.348Z,880.00
2019-03-22T06:23:29.347Z,904.00
2019-03-22T06:24:29.347Z,920.00
2019-03-22T06:25:29.313Z,932.00
2019-03-22T06:26:29.283Z,952.00
2019-03-22T06:27:29.307Z,976.00
2019-03-22T06:28:29.286Z,1000.00
2019-03-22T06:29:29.292Z,968.00
2019-03-22T06:30:29.268Z,920.00
2019-03-22T06:31:29.258Z,936.00
2019-03-22T06:32:29.223Z,980.00
2019-03-22T06:33:29.241Z,980.00
2019-03-22T06:34:29.206Z,984.00
2019-03-22T06:35:29.207Z,1008.00
2019-03-22T06:36:29.205Z,1040.00
2019-03-22T06:37:29.816Z,1068.00
2019-03-22T06:38:29.256Z,1080.00
2019-03-22T06:39:29.161Z,1072.00
2019-03-22T06:40:29.140Z,1060.00
2019-03-22T06:41:29.257Z,1036.00
2019-03-22T06:42:29.136Z,1008.00
2019-03-22T06:43:29.109Z,1000.00
2019-03-22T06:44:29.287Z,1016.00
2019-03-22T06:45:29.077Z,1048.00
2019-03-22T06:46:29.121Z,1080.00
2019-03-22T06:47:29.103Z,1104.00
2019-03-22T06:48:29.074Z,1124.00
2019-03-22T06:49:29.045Z,1140.00
2019-03-22T06:50:29.040Z,1156.00
2019-03-22T06:51:29.023Z,1156.00
2019-03-22T06:52:29.023Z,1152.00
2019-03-22T06:53:29.044Z,1152.00
2019-03-22T06:54:31.770Z,1176.00
2019-03-22T06:55:29.029Z,1208.00
2019-03-22T06:56:29.014Z,1256.00
2019-03-22T06:57:28.958Z,1316.00
2019-03-22T06:58:29.828Z,1388.00
2019-03-22T06:59:28.950Z,1448.00
2019-03-22T07:00:28.927Z,1484.00
2019-03-22T07:01:28.939Z,1484.00
2019-03-22T07:02:28.930Z,1456.00
2019-03-22T07:03:28.907Z,1428.00
2019-03-22T07:04:28.884Z,1444.00
2019-03-22T07:05:28.877Z,1500.00
2019-03-22T07:06:28.887Z,1564.00
2019-03-22T07:07:28.924Z,1612.00
2019-03-22T07:08:28.834Z,1644.00
2019-03-22T07:09:28.836Z,1664.00
2019-03-22T07:10:28.929Z,1660.00
2019-03-22T07:11:28.814Z,1648.00
2019-03-22T07:12:28.802Z,1644.00
2019-03-22T07:13:28.788Z,1628.00
2019-03-22T07:14:28.788Z,1668.00
2019-03-22T07:15:28.791Z,1676.00
2019-03-22T07:16:28.817Z,1664.00
2019-03-22T07:17:28.789Z,1656.00
2019-03-22T07:18:28.733Z,1648.00
2019-03-22T07:19:28.736Z,1656.00
2019-03-22T07:20:28.714Z,1708.00
2019-03-22T07:21:28.701Z,1780.00
2019-03-22T07:22:28.817Z,1844.00
2019-03-22T07:23:28.798Z,1888.00
2019-03-22T07:24:28.726Z,1912.00
2019-03-22T07:25:28.669Z,1932.00
2019-03-22T07:26:30.101Z,1956.00
2019-03-22T07:27:28.678Z,1968.00
2019-03-22T07:28:28.634Z,2000.00
2019-03-22T07:29:28.626Z,2032.00
2019-03-22T07:30:28.603Z,2056.00
2019-03-22T07:31:28.605Z,2044.00
2019-03-22T07:32:28.609Z,2072.00
2019-03-22T07:33:29.384Z,2112.00
2019-03-22T07:34:28.776Z,2108.00
2019-03-22T07:35:28.551Z,2092.00
2019-03-22T07:36:28.555Z,2084.00
2019-03-22T07:37:28.531Z,2116.00
2019-03-22T07:38:29.800Z,2168.00
2019-03-22T07:39:29.329Z,2216.00
2019-03-22T07:40:28.506Z,2236.00
2019-03-22T07:41:28.516Z,2256.00
2019-03-22T07:42:28.516Z,2268.00
2019-03-22T07:43:28.466Z,2280.00
2019-03-22T07:44:28.477Z,2300.00
2019-03-22T07:45:28.447Z,2328.00
2019-03-22T07:46:28.448Z,2356.00
2019-03-22T07:47:29.474Z,2372.00
2019-03-22T07:48:28.429Z,2392.00
2019-03-22T07:49:28.404Z,2416.00
2019-03-22T07:50:28.422Z,2448.00
2019-03-22T07:51:28.406Z,2500.00
2019-03-22T07:52:28.434Z,2528.00
2019-03-22T07:53:28.366Z,2600.00
2019-03-22T07:54:28.415Z,2632.00
2019-03-22T07:55:28.348Z,2680.00
2019-03-22T07:56:28.317Z,2736.00
2019-03-22T07:57:28.342Z,2772.00
2019-03-22T07:58:28.318Z,2800.00
2019-03-22T07:59:28.303Z,2828.00
2019-03-22T08:00:31.003Z,2864.00
2019-03-22T08:01:28.291Z,2884.00
2019-03-22T08:02:28.262Z,2872.00
2019-03-22T08:03:28.263Z,2876.00
2019-03-22T08:04:28.372Z,2876.00
2019-03-22T08:05:28.293Z,2872.00
2019-03-22T08:06:28.248Z,2864.00
2019-03-22T08:07:28.233Z,2884.00
2019-03-22T08:08:28.209Z,2924.00
2019-03-22T08:09:28.208Z,3008.00
2019-03-22T08:10:28.272Z,3092.00
2019-03-22T08:11:28.248Z,3132.00
2019-03-22T08:12:28.165Z,3132.00
2019-03-22T08:13:28.167Z,3136.00
2019-03-22T08:14:28.165Z,3156.00
2019-03-22T08:15:28.123Z,3176.00
2019-03-22T08:16:28.218Z,3192.00
2019-03-22T08:17:28.107Z,3180.00
2019-03-22T08:18:28.227Z,3184.00
2019-03-22T08:19:28.146Z,3144.00
2019-03-22T08:20:28.149Z,3276.00
2019-03-22T08:21:28.091Z,3340.00
2019-03-22T08:22:31.486Z,3396.00
2019-03-22T08:23:28.094Z,3428.00
2019-03-22T08:24:28.073Z,3388.00
2019-03-22T08:25:28.263Z,3312.00
2019-03-22T08:26:28.044Z,3300.00
2019-03-22T08:27:28.053Z,3320.00
2019-03-22T08:28:28.020Z,3336.00
2019-03-22T08:29:28.206Z,3420.00
2019-03-22T08:30:27.972Z,3552.00
2019-03-22T08:31:27.944Z,3652.00
2019-03-22T08:32:28.020Z,3748.00
2019-03-22T08:33:28.053Z,3792.00
2019-03-22T08:34:27.938Z,3752.00
2019-03-22T08:35:27.921Z,3700.00
2019-03-22T08:36:27.899Z,3712.00
2019-03-22T08:37:27.904Z,3692.00
2019-03-22T08:38:27.912Z,3608.00
2019-03-22T08:39:27.928Z,3548.00
2019-03-22T08:40:30.185Z,3548.00
2019-03-22T08:41:28.846Z,3528.00
2019-03-22T08:42:27.839Z,3624.00
2019-03-22T08:43:27.915Z,3664.00
2019-03-22T08:44:27.867Z,3772.00
2019-03-22T08:45:29.760Z,3820.00
2019-03-22T08:46:27.864Z,3836.00
2019-03-22T08:47:33.752Z,3880.00
2019-03-22T08:48:28.816Z,3984.00
2019-03-22T08:49:27.877Z,4020.00
2019-03-22T08:50:27.751Z,3980.00
2019-03-22T08:51:29.882Z,3932.00
2019-03-22T08:52:27.729Z,3964.00
2019-03-22T08:53:27.718Z,4100.00
2019-03-22T08:54:27.773Z,4172.00
2019-03-22T08:55:27.713Z,4236.00
2019-03-22T08:56:27.690Z,4232.00
2019-03-22T08:57:27.705Z,4248.00
2019-03-22T08:58:27.688Z,4200.00
2019-03-22T08:59:27.706Z,4160.00
2019-03-22T09:00:38.523Z,4060.00
2019-03-22T09:01:28.628Z,4024.00
2019-03-22T09:02:27.653Z,4040.00
2019-03-22T09:03:27.616Z,3992.00
2019-03-22T09:04:27.693Z,3964.00
2019-03-22T09:05:27.599Z,4120.00
2019-03-22T09:06:27.589Z,4224.00
2019-03-22T09:07:27.617Z,4336.00
2019-03-22T09:08:27.567Z,4428.00
2019-03-22T09:09:27.596Z,4464.00
2019-03-22T09:10:27.651Z,4468.00
2019-03-22T09:11:27.590Z,4440.00
2019-03-22T09:12:27.601Z,4464.00
2019-03-22T09:13:27.517Z,4604.00
2019-03-22T09:14:27.527Z,4744.00
2019-03-22T09:15:40.217Z,4812.00
2019-03-22T09:16:30.735Z,4888.00
2019-03-22T09:17:27.517Z,5020.00
2019-03-22T09:18:27.541Z,5048.00
2019-03-22T09:19:27.488Z,5208.00
2019-03-22T09:20:27.518Z,5352.00
2019-03-22T09:21:27.435Z,5400.00
2019-03-22T09:22:27.463Z,5348.00
2019-03-22T09:23:27.425Z,5288.00
2019-03-22T09:24:38.551Z,5160.00
2019-03-22T09:25:28.380Z,5148.00
2019-03-22T09:26:27.380Z,5160.00
2019-03-22T09:27:27.382Z,5216.00
2019-03-22T09:28:27.363Z,5272.00
2019-03-22T09:29:27.427Z,5292.00
2019-03-22T09:30:27.348Z,5252.00
2019-03-22T09:31:27.389Z,5200.00
2019-03-22T09:32:27.346Z,5160.00
2019-03-22T09:33:27.329Z,5148.00
2019-03-22T09:34:33.522Z,5172.00
2019-03-22T09:35:28.429Z,5152.00
2019-03-22T09:36:27.302Z,5016.00
2019-03-22T09:37:27.265Z,4856.00
2019-03-22T09:38:28.589Z,4756.00
2019-03-22T09:39:27.277Z,4712.00
2019-03-22T09:40:27.337Z,4684.00
2019-03-22T09:41:27.194Z,4680.00
2019-03-22T09:42:27.360Z,4720.00
2019-03-22T09:43:27.371Z,4740.00
2019-03-22T09:44:28.358Z,4760.00
2019-03-22T09:45:27.185Z,4748.00
2019-03-22T09:46:27.154Z,4716.00
2019-03-22T09:47:27.168Z,4696.00
2019-03-22T09:48:27.152Z,4716.00
2019-03-22T09:49:27.121Z,4736.00
2019-03-22T09:50:27.139Z,4748.00
2019-03-22T09:51:27.102Z,4748.00
2019-03-22T09:52:27.126Z,4724.00
2019-03-22T09:53:30.162Z,4732.00
2019-03-22T09:54:27.070Z,4804.00
2019-03-22T09:55:27.074Z,4896.00
2019-03-22T09:56:27.090Z,4916.00
2019-03-22T09:57:27.059Z,4908.00
2019-03-22T09:58:27.250Z,4940.00
2019-03-22T09:59:26.998Z,4980.00
2019-03-22T10:00:27.020Z,5032.00
2019-03-22T10:01:27.102Z,5068.00
2019-03-22T10:02:26.998Z,5100.00
2019-03-22T10:03:27.055Z,5100.00
2019-03-22T10:04:27.005Z,5116.00
2019-03-22T10:05:27.042Z,5204.00
2019-03-22T10:06:26.966Z,5340.00
2019-03-22T10:07:26.954Z,5408.00
2019-03-22T10:08:26.976Z,5420.00
2019-03-22T10:09:26.960Z,5272.00
2019-03-22T10:10:26.913Z,5396.00
2019-03-22T10:11:26.907Z,5544.00
2019-03-22T10:12:26.883Z,5536.00
2019-03-22T10:13:26.885Z,5440.00
2019-03-22T10:14:26.954Z,5372.00
2019-03-22T10:15:26.883Z,5352.00
2019-03-22T10:16:26.832Z,5364.00
2019-03-22T10:17:26.848Z,5380.00
2019-03-22T10:18:26.859Z,5348.00
2019-03-22T10:19:26.799Z,5340.00
2019-03-22T10:20:26.850Z,5384.00
2019-03-22T10:21:26.780Z,5460.00
2019-03-22T10:22:26.775Z,5548.00
2019-03-22T10:23:26.753Z,5644.00
2019-03-22T10:24:26.771Z,5720.00
2019-03-22T10:25:26.793Z,5784.00
2019-03-22T10:26:26.766Z,5832.00
2019-03-22T10:27:26.733Z,5820.00
2019-03-22T10:28:26.742Z,5988.00
2019-03-22T10:29:26.699Z,6048.00
2019-03-22T10:30:26.809Z,6028.00
2019-03-22T10:31:36.494Z,6040.00
2019-03-22T10:32:27.662Z,5944.00
2019-03-22T10:33:26.646Z,5820.00
2019-03-22T10:34:26.720Z,5684.00
2019-03-22T10:35:26.826Z,5540.00
2019-03-22T10:36:26.611Z,5540.00
2019-03-22T10:37:26.607Z,5476.00
2019-03-22T10:38:31.873Z,5436.00
2019-03-22T10:39:27.680Z,5464.00
2019-03-22T10:40:26.580Z,5528.00
2019-03-22T10:41:26.578Z,5580.00
2019-03-22T10:42:26.549Z,5656.00
2019-03-22T10:43:26.656Z,5648.00
2019-03-22T10:44:26.554Z,5680.00
2019-03-22T10:45:26.546Z,5736.00
2019-03-22T10:46:26.726Z,5768.00
2019-03-22T10:47:26.493Z,5720.00
2019-03-22T10:48:26.484Z,5668.00
2019-03-22T10:49:26.476Z,5576.00
2019-03-22T10:50:26.550Z,5528.00
2019-03-22T10:51:26.611Z,5456.00
2019-03-22T10:52:27.602Z,5416.00
2019-03-22T10:53:26.451Z,5452.00
2019-03-22T10:54:26.438Z,5488.00
2019-03-22T10:55:30.377Z,5496.00
2019-03-22T10:56:26.484Z,5504.00
2019-03-22T10:57:26.396Z,5552.00
2019-03-22T10:58:27.378Z,5560.00
2019-03-22T10:59:26.436Z,5540.00
2019-03-22T11:00:26.356Z,5524.00
2019-03-22T11:01:26.342Z,5588.00
2019-03-22T11:02:26.365Z,5692.00
2019-03-22T11:03:26.343Z,5844.00
2019-03-22T11:04:26.342Z,5936.00
2019-03-22T11:05:26.338Z,6072.00
2019-03-22T11:06:26.795Z,6304.00
2019-03-22T11:07:26.283Z,6484.00
2019-03-22T11:08:26.372Z,6604.00
2019-03-22T11:09:26.255Z,6668.00
2019-03-22T11:10:26.263Z,6688.00
2019-03-22T11:11:26.262Z,6812.00
2019-03-22T11:12:26.226Z,7064.00
2019-03-22T11:13:26.227Z,7292.00
2019-03-22T11:14:26.233Z,7452.00
2019-03-22T11:15:26.187Z,7644.00
2019-03-22T11:16:26.189Z,7800.00
2019-03-22T11:17:26.191Z,7880.00
2019-03-22T11:18:26.304Z,7964.00
2019-03-22T11:19:26.143Z,7928.00
2019-03-22T11:20:26.148Z,7788.00
2019-03-22T11:21:26.154Z,7792.00
2019-03-22T11:22:26.120Z,7772.00
2019-03-22T11:23:26.288Z,7760.00
2019-03-22T11:24:26.122Z,7584.00
2019-03-22T11:25:26.077Z,7292.00
2019-03-22T11:26:26.100Z,7144.00
2019-03-22T11:27:26.203Z,7100.00
2019-03-22T11:28:26.043Z,7108.00
2019-03-22T11:29:26.080Z,7264.00
2019-03-22T11:30:26.062Z,7340.00
2019-03-22T11:31:28.635Z,7460.00
2019-03-22T11:32:26.014Z,7580.00
2019-03-22T11:33:25.991Z,7644.00
2019-03-22T11:34:26.005Z,7704.00
2019-03-22T11:35:25.982Z,7904.00
2019-03-22T11:36:25.988Z,8196.00
2019-03-22T11:37:25.957Z,8280.00
2019-03-22T11:38:25.970Z,8144.00
2019-03-22T11:39:25.975Z,7888.00
2019-03-22T11:40:25.953Z,7672.00
2019-03-22T11:41:25.936Z,7648.00
2019-03-22T11:42:25.928Z,7580.00
2019-03-22T11:43:25.886Z,7488.00
2019-03-22T11:44:25.914Z,7296.00
2019-03-22T11:45:25.912Z,7288.00
2019-03-22T11:46:25.865Z,7460.00
2019-03-22T11:47:25.850Z,7592.00
2019-03-22T11:48:25.859Z,7652.00
2019-03-22T11:49:25.856Z,7696.00
2019-03-22T11:50:25.844Z,7728.00
2019-03-22T11:51:25.855Z,7760.00
2019-03-22T11:52:25.833Z,7936.00
2019-03-22T11:53:25.836Z,8220.00
2019-03-22T11:54:25.849Z,8544.00
2019-03-22T11:55:25.759Z,8824.00
2019-03-22T11:56:25.837Z,9016.00
2019-03-22T11:57:25.766Z,9236.00
2019-03-22T11:58:25.744Z,9300.00
2019-03-22T11:59:25.744Z,9252.00
2019-03-22T12:00:25.721Z,9044.00
2019-03-22T12:01:25.712Z,8836.00
2019-03-22T12:02:25.739Z,8884.00
2019-03-22T12:03:25.684Z,8784.00
2019-03-22T12:04:25.661Z,8620.00
2019-03-22T12:05:25.687Z,8580.00
2019-03-22T12:06:27.294Z,8688.00
2019-03-22T12:07:25.627Z,8988.00
2019-03-22T12:08:25.676Z,9312.00
2019-03-22T12:09:25.626Z,9408.00
2019-03-22T12:10:25.611Z,9248.00
2019-03-22T12:11:25.586Z,9012.00
2019-03-22T12:12:25.631Z,8776.00
2019-03-22T12:13:25.630Z,8668.00
2019-03-22T12:14:25.574Z,8644.00
2019-03-22T12:15:25.576Z,8668.00
2019-03-22T12:16:25.585Z,8800.00
2019-03-22T12:17:25.517Z,8900.00
2019-03-22T12:18:25.541Z,9184.00
2019-03-22T12:19:25.695Z,9492.00
2019-03-22T12:20:25.556Z,9332.00
2019-03-22T12:21:25.574Z,9016.00
2019-03-22T12:22:25.577Z,8812.00
2019-03-22T12:23:25.484Z,8604.00
2019-03-22T12:24:25.476Z,8508.00
2019-03-22T12:25:25.497Z,8640.00
2019-03-22T12:26:25.415Z,8820.00
2019-03-22T12:27:25.433Z,8952.00
2019-03-22T12:28:25.440Z,9180.00
2019-03-22T12:29:25.447Z,9476.00
2019-03-22T12:30:25.395Z,9556.00
2019-03-22T12:31:25.375Z,9444.00
2019-03-22T12:32:32.205Z,9332.00
2019-03-22T12:33:26.355Z,9228.00
2019-03-22T12:34:25.338Z,9008.00
2019-03-22T12:35:25.398Z,8652.00
2019-03-22T12:36:25.312Z,8292.00